Time;durP1;ratioP1;P1;durP2;ratioP2;P2;SDS_P1;SDS_P2;PMS_P1;PMS_P2;Temp;Humidity;BMP_temperature;BMP_pressure;BME280_temperature;BME280_humidity;BME280_pressure;Samples;Min_cycle;Max_cycle;Signal;HPM_P1;HPM_P2
2022/03/27 00:01:30;;;;;;;19.00;10.60;;;;;;;;;;6311946;22;20385;-83
2022/03/27 00:03:56;;;;;;;18.52;10.15;;;;;;;;;;6313074;22;20395;-82
2022/03/27 00:06:22;;;;;;;17.25;9.50;;;;;;;;;;6312245;22;20327;-83
2022/03/27 00:08:48;;;;;;;17.08;10.40;;;;;;;;;;6312289;22;19995;-82
2022/03/27 00:11:29;;;;;;;19.40;10.25;;;;;;;;;;6311334;22;20003;-83
2022/03/27 00:13:58;;;;;;;21.70;11.10;;;;;;;;;;6310546;22;20003;-82
2022/03/27 00:16:24;;;;;;;16.10;10.70;;;;;;;;;;6311087;22;19995;-82
2022/03/27 00:18:50;;;;;;;17.35;10.48;;;;;;;;;;6312377;22;20005;-83
2022/03/27 00:21:17;;;;;;;16.85;10.80;;;;;;;;;;6284234;22;20010;-82
2022/03/27 00:23:43;;;;;;;16.45;10.02;;;;;;;;;;6312016;22;20003;-82
2022/03/27 00:26:12;;;;;;;17.55;10.27;;;;;;;;;;6312585;22;20006;-82
2022/03/27 00:28:38;;;;;;;15.63;10.02;;;;;;;;;;6312927;22;20130;-83
2022/03/27 00:31:06;;;;;;;16.02;10.98;;;;;;;;;;6314561;22;19999;-83
2022/03/27 00:33:37;;;;;;;17.55;10.02;;;;;;;;;;6314545;22;20015;-82
2022/03/27 00:36:04;;;;;;;20.73;10.88;;;;;;;;;;6314317;22;19995;-82
2022/03/27 00:38:30;;;;;;;17.40;10.27;;;;;;;;;;6314037;22;20007;-83
2022/03/27 00:40:57;;;;;;;19.38;11.32;;;;;;;;;;6314011;22;20037;-82
2022/03/27 00:43:24;;;;;;;17.02;10.75;;;;;;;;;;6314718;22;20360;-83
2022/03/27 00:45:51;;;;;;;18.65;10.30;;;;;;;;;;6286831;22;20025;-83
2022/03/27 00:48:18;;;;;;;17.42;10.95;;;;;;;;;;6286403;22;20003;-82
2022/03/27 00:50:44;;;;;;;17.15;9.93;;;;;;;;;;6313874;22;20003;-83
2022/03/27 00:53:10;;;;;;;17.77;10.65;;;;;;;;;;6314935;22;20014;-82
2022/03/27 00:55:37;;;;;;;18.98;12.38;;;;;;;;;;6314465;22;20070;-82
2022/03/27 00:58:04;;;;;;;21.13;12.05;;;;;;;;;;6313825;22;20399;-82
2022/03/27 01:00:56;;;;;;;19.75;12.85;;;;;;;;;;6314131;22;20015;-82
2022/03/27 01:03:26;;;;;;;19.45;12.77;;;;;;;;;;6308742;22;20007;-83
2022/03/27 01:05:53;;;;;;;19.38;11.35;;;;;;;;;;6314470;22;20084;-82
2022/03/27 01:11:12;;;;;;;19.42;11.45;;;;;;;;;;6313671;22;20018;-82
2022/03/27 01:13:40;;;;;;;19.65;12.57;;;;;;;;;;6313461;22;20429;-82
2022/03/27 01:16:12;;;;;;;23.73;13.25;;;;;;;;;;6313460;22;20038;-82
2022/03/27 01:18:39;;;;;;;20.25;12.65;;;;;;;;;;6286633;22;19995;-82
2022/03/27 01:21:07;;;;;;;20.65;13.82;;;;;;;;;;6314397;22;20074;-82
2022/03/27 01:23:35;;;;;;;19.60;13.13;;;;;;;;;;6314068;22;20007;-82
2022/03/27 01:26:01;;;;;;;20.38;14.30;;;;;;;;;;6314064;22;20431;-82
2022/03/27 01:28:27;;;;;;;21.02;13.25;;;;;;;;;;6313935;22;20003;-83
2022/03/27 01:30:53;;;;;;;21.50;14.32;;;;;;;;;;6314310;22;20027;-82
2022/03/27 01:33:19;;;;;;;22.80;16.15;;;;;;;;;;6313820;22;19999;-82
2022/03/27 01:35:45;;;;;;;25.60;16.50;;;;;;;;;;6313691;22;19999;-82
2022/03/27 01:38:11;;;;;;;27.80;18.88;;;;;;;;;;6285426;22;20003;-82
2022/03/27 01:40:37;;;;;;;28.95;19.17;;;;;;;;;;6286386;22;19996;-82
2022/03/27 01:43:03;;;;;;;27.67;19.70;;;;;;;;;;6286030;22;19999;-82
2022/03/27 01:45:29;;;;;;;29.27;19.33;;;;;;;;;;6313807;22;20057;-82
2022/03/27 01:47:55;;;;;;;26.13;17.85;;;;;;;;;;6315146;22;20018;-83
2022/03/27 01:50:21;;;;;;;24.63;18.27;;;;;;;;;;6285990;22;20004;-82
2022/03/27 01:52:47;;;;;;;27.88;19.08;;;;;;;;;;6313704;22;19999;-82
2022/03/27 01:55:16;;;;;;;28.42;20.08;;;;;;;;;;6314356;22;20025;-82
2022/03/27 01:57:43;;;;;;;28.42;19.23;;;;;;;;;;6287072;22;20027;-82
2022/03/27 02:00:10;;;;;;;26.55;19.02;;;;;;;;;;6286215;22;19995;-82
2022/03/27 02:02:36;;;;;;;24.65;19.58;;;;;;;;;;6313039;22;20090;-82
2022/03/27 02:05:04;;;;;;;29.25;20.17;;;;;;;;;;6286222;22;20007;-82
2022/03/27 02:07:44;;;;;;;27.33;18.77;;;;;;;;;;6286033;22;20008;-82
2022/03/27 02:10:10;;;;;;;27.55;19.42;;;;;;;;;;6313631;22;19999;-82
2022/03/27 02:12:36;;;;;;;32.15;20.52;;;;;;;;;;6314305;22;20014;-82
2022/03/27 02:15:06;;;;;;;25.77;19.95;;;;;;;;;;6316209;22;20382;-82
2022/03/27 02:17:32;;;;;;;28.10;19.08;;;;;;;;;;6318383;22;19995;-82
2022/03/27 02:19:59;;;;;;;30.67;20.52;;;;;;;;;;6313769;22;19996;-82
2022/03/27 02:22:25;;;;;;;33.38;20.48;;;;;;;;;;6286860;22;20007;-82
2022/03/27 02:24:51;;;;;;;27.73;19.65;;;;;;;;;;6313782;22;20442;-82
2022/03/27 02:27:17;;;;;;;28.10;20.67;;;;;;;;;;6314097;22;20082;-82
2022/03/27 02:29:43;;;;;;;32.03;20.17;;;;;;;;;;6312608;22;20011;-82
2022/03/27 02:32:10;;;;;;;27.77;19.23;;;;;;;;;;6285740;22;20003;-82
2022/03/27 02:34:36;;;;;;;26.92;19.05;;;;;;;;;;6286027;22;19999;-82
2022/03/27 02:37:02;;;;;;;29.55;19.27;;;;;;;;;;6313921;22;20416;-82
2022/03/27 02:39:29;;;;;;;26.40;18.30;;;;;;;;;;6312924;22;19995;-82
2022/03/27 02:41:55;;;;;;;26.10;18.42;;;;;;;;;;6312641;22;19999;-82
2022/03/27 02:44:22;;;;;;;23.75;16.58;;;;;;;;;;6314123;22;20465;-82
2022/03/27 02:46:48;;;;;;;26.58;17.67;;;;;;;;;;6306815;22;19999;-82
2022/03/27 02:49:14;;;;;;;25.48;17.30;;;;;;;;;;6306370;22;19995;-82
2022/03/27 02:51:41;;;;;;;24.55;16.10;;;;;;;;;;6333313;22;20049;-82
2022/03/27 02:54:08;;;;;;;21.58;14.95;;;;;;;;;;6307946;22;20003;-82
2022/03/27 02:56:34;;;;;;;21.25;14.20;;;;;;;;;;6333434;22;19994;-82
2022/03/27 02:59:00;;;;;;;21.02;13.45;;;;;;;;;;6329820;22;20141;-82
2022/03/27 03:01:26;;;;;;;22.92;14.15;;;;;;;;;;6313435;22;20122;-82
2022/03/27 03:03:52;;;;;;;20.42;14.38;;;;;;;;;;6313143;22;20007;-82
2022/03/27 03:06:20;;;;;;;21.00;14.38;;;;;;;;;;6313611;22;20004;-82
2022/03/27 03:08:46;;;;;;;22.45;13.50;;;;;;;;;;6313927;22;20025;-82
2022/03/27 03:11:14;;;;;;;20.05;14.30;;;;;;;;;;6312576;22;20377;-83
2022/03/27 03:13:40;;;;;;;19.80;12.50;;;;;;;;;;6313285;22;20011;-82
2022/03/27 03:16:08;;;;;;;21.30;14.40;;;;;;;;;;6285448;22;20486;-83
2022/03/27 03:18:35;;;;;;;19.88;13.45;;;;;;;;;;6284882;22;20059;-82
2022/03/27 03:21:01;;;;;;;19.90;12.85;;;;;;;;;;6312962;22;20390;-82
2022/03/27 03:23:28;;;;;;;22.48;14.02;;;;;;;;;;6284133;22;20007;-82
2022/03/27 03:25:55;;;;;;;18.33;12.93;;;;;;;;;;6312693;22;20003;-83
2022/03/27 03:28:21;;;;;;;18.05;12.23;;;;;;;;;;6287093;22;20034;-83
2022/03/27 03:30:47;;;;;;;18.30;11.70;;;;;;;;;;6306169;22;20007;-82
2022/03/27 03:33:13;;;;;;;16.23;10.88;;;;;;;;;;6306777;22;20102;-82
2022/03/27 03:35:41;;;;;;;16.05;11.40;;;;;;;;;;6333755;22;19983;-82
2022/03/27 03:38:07;;;;;;;16.88;11.80;;;;;;;;;;6333160;22;20007;-82
2022/03/27 03:40:33;;;;;;;19.02;10.90;;;;;;;;;;6298359;22;20030;-83
2022/03/27 03:42:59;;;;;;;16.83;11.38;;;;;;;;;;6313119;22;20059;-83
2022/03/27 03:45:25;;;;;;;20.65;12.25;;;;;;;;;;6311898;22;20440;-83
2022/03/27 03:47:51;;;;;;;17.98;11.57;;;;;;;;;;6284571;22;20003;-83
2022/03/27 03:50:17;;;;;;;20.33;12.25;;;;;;;;;;6312534;22;20053;-83
2022/03/27 03:52:43;;;;;;;17.27;11.90;;;;;;;;;;6311806;22;20003;-83
2022/03/27 03:55:09;;;;;;;20.63;12.80;;;;;;;;;;6312451;22;19999;-83
2022/03/27 03:57:36;;;;;;;19.30;12.02;;;;;;;;;;6311770;22;20364;-83
2022/03/27 04:00:02;;;;;;;18.10;13.15;;;;;;;;;;6286138;22;20508;-83
2022/03/27 04:02:28;;;;;;;17.13;11.38;;;;;;;;;;6286688;22;20060;-83
2022/03/27 04:04:54;;;;;;;17.33;11.70;;;;;;;;;;6314943;22;20003;-83
2022/03/27 04:07:20;;;;;;;16.13;10.88;;;;;;;;;;6286994;22;20545;-82
2022/03/27 04:09:46;;;;;;;17.65;10.98;;;;;;;;;;6287247;22;20003;-83
2022/03/27 04:12:12;;;;;;;16.95;11.07;;;;;;;;;;6314603;22;20004;-83
2022/03/27 04:14:39;;;;;;;17.40;11.38;;;;;;;;;;6314241;22;19999;-82
2022/03/27 04:17:05;;;;;;;16.60;10.85;;;;;;;;;;6314009;22;20344;-83
2022/03/27 04:19:31;;;;;;;15.98;9.82;;;;;;;;;;6314121;22;19995;-82
2022/03/27 04:21:58;;;;;;;14.82;9.35;;;;;;;;;;6313735;22;20435;-83
2022/03/27 04:24:24;;;;;;;17.60;11.30;;;;;;;;;;6285766;22;20015;-83
2022/03/27 04:26:50;;;;;;;17.13;11.18;;;;;;;;;;6314099;22;20003;-83
2022/03/27 04:29:16;;;;;;;15.20;9.65;;;;;;;;;;6314129;22;20022;-83
2022/03/27 04:31:42;;;;;;;14.65;9.30;;;;;;;;;;6313776;22;20000;-82
2022/03/27 04:34:09;;;;;;;13.77;8.82;;;;;;;;;;6286520;22;19999;-83
2022/03/27 04:36:35;;;;;;;12.05;7.70;;;;;;;;;;6313742;22;20000;-82
2022/03/27 04:39:01;;;;;;;14.00;8.18;;;;;;;;;;6314066;22;20117;-82
2022/03/27 04:41:27;;;;;;;13.95;7.88;;;;;;;;;;6313565;22;19999;-82
2022/03/27 04:43:53;;;;;;;12.40;7.55;;;;;;;;;;6313166;22;20003;-82
2022/03/27 04:46:19;;;;;;;12.15;7.88;;;;;;;;;;6313242;22;20010;-82
2022/03/27 04:48:46;;;;;;;11.15;6.85;;;;;;;;;;6311211;22;19999;-82
2022/03/27 04:51:12;;;;;;;11.70;7.07;;;;;;;;;;6312718;22;19999;-82
2022/03/27 04:53:39;;;;;;;12.30;7.43;;;;;;;;;;6312067;22;20454;-82
2022/03/27 04:56:05;;;;;;;12.60;7.80;;;;;;;;;;6312310;22;19999;-82
2022/03/27 04:58:32;;;;;;;12.48;7.88;;;;;;;;;;6311745;22;20071;-82
2022/03/27 05:00:58;;;;;;;12.23;7.18;;;;;;;;;;6311707;22;20003;-82
2022/03/27 05:03:24;;;;;;;12.43;7.55;;;;;;;;;;6312017;22;20055;-82
2022/03/27 05:05:50;;;;;;;12.95;7.80;;;;;;;;;;6312536;22;19999;-82
2022/03/27 05:08:16;;;;;;;12.90;7.38;;;;;;;;;;6311246;22;20117;-82
2022/03/27 05:10:42;;;;;;;14.63;8.18;;;;;;;;;;6313647;22;19999;-82
2022/03/27 05:13:08;;;;;;;12.98;7.10;;;;;;;;;;6313461;22;20007;-82
2022/03/27 05:15:35;;;;;;;12.68;7.10;;;;;;;;;;6287679;22;20000;-81
2022/03/27 05:18:01;;;;;;;13.48;7.43;;;;;;;;;;6318577;22;19999;-82
2022/03/27 05:20:29;;;;;;;11.80;6.68;;;;;;;;;;6291065;22;20000;-82
2022/03/27 05:22:55;;;;;;;14.60;7.80;;;;;;;;;;6319068;22;20025;-81
2022/03/27 05:25:22;;;;;;;13.63;8.65;;;;;;;;;;6315765;22;20445;-81
2022/03/27 05:27:56;;;;;;;11.90;7.13;;;;;;;;;;6313210;22;20064;-82
2022/03/27 05:30:23;;;;;;;11.45;7.15;;;;;;;;;;6312996;22;19999;-82
2022/03/27 05:32:49;;;;;;;16.00;7.38;;;;;;;;;;6315924;22;20048;-83
2022/03/27 05:35:16;;;;;;;12.85;7.63;;;;;;;;;;6315027;22;19995;-83
2022/03/27 05:37:43;;;;;;;15.13;8.25;;;;;;;;;;6315155;22;20003;-83
2022/03/27 05:40:10;;;;;;;13.18;7.43;;;;;;;;;;6313460;22;20078;-82
2022/03/27 05:42:36;;;;;;;14.30;7.90;;;;;;;;;;6313788;22;20003;-81
2022/03/27 05:45:06;;;;;;;15.20;8.60;;;;;;;;;;6314533;22;20006;-82
2022/03/27 05:47:41;;;;;;;12.57;7.97;;;;;;;;;;6320335;22;20003;-83
2022/03/27 05:50:07;;;;;;;11.70;7.10;;;;;;;;;;6286941;22;20317;-81
2022/03/27 05:52:34;;;;;;;13.43;7.88;;;;;;;;;;6285102;22;20003;-81
2022/03/27 05:55:00;;;;;;;15.02;8.73;;;;;;;;;;6313059;22;20078;-81
2022/03/27 05:57:27;;;;;;;13.00;7.40;;;;;;;;;;6314349;22;20499;-82
2022/03/27 05:59:53;;;;;;;11.77;7.50;;;;;;;;;;6310935;22;20074;-83
2022/03/27 06:02:18;;;;;;;15.68;8.30;;;;;;;;;;6313239;22;20003;-82
2022/03/27 06:04:45;;;;;;;13.15;7.70;;;;;;;;;;6285207;22;20011;-81
2022/03/27 06:07:11;;;;;;;11.05;7.00;;;;;;;;;;6313810;22;20003;-82
2022/03/27 06:09:38;;;;;;;10.27;6.63;;;;;;;;;;6313308;22;19999;-81
2022/03/27 06:12:04;;;;;;;11.07;6.80;;;;;;;;;;6314233;22;20047;-81
2022/03/27 06:14:30;;;;;;;12.60;6.80;;;;;;;;;;6313022;22;19992;-81
2022/03/27 06:16:57;;;;;;;12.07;7.47;;;;;;;;;;6313946;22;20004;-80
2022/03/27 06:19:23;;;;;;;12.73;8.02;;;;;;;;;;6313246;22;20358;-82
2022/03/27 06:21:49;;;;;;;12.07;7.88;;;;;;;;;;6286271;22;20003;-82
2022/03/27 06:24:16;;;;;;;14.30;7.65;;;;;;;;;;6313459;22;19996;-82
2022/03/27 06:26:42;;;;;;;12.95;7.05;;;;;;;;;;6284268;22;20422;-81
2022/03/27 06:29:14;;;;;;;12.40;7.13;;;;;;;;;;6285928;22;20010;-82
2022/03/27 06:31:40;;;;;;;11.82;6.80;;;;;;;;;;6312836;22;20021;-82
2022/03/27 06:34:06;;;;;;;10.50;6.93;;;;;;;;;;6313704;22;20004;-82
2022/03/27 06:36:36;;;;;;;11.95;6.82;;;;;;;;;;6314099;22;20021;-82
2022/03/27 06:39:03;;;;;;;10.50;7.38;;;;;;;;;;6312519;22;20003;-82
2022/03/27 06:41:29;;;;;;;13.95;7.85;;;;;;;;;;6313806;22;20002;-82
2022/03/27 06:43:55;;;;;;;13.40;6.80;;;;;;;;;;6314673;22;20424;-82
2022/03/27 06:46:23;;;;;;;11.95;7.13;;;;;;;;;;6313838;22;19999;-82
2022/03/27 06:48:50;;;;;;;11.73;7.55;;;;;;;;;;6314887;22;20055;-82
2022/03/27 06:51:16;;;;;;;13.77;8.63;;;;;;;;;;6313126;22;20061;-82
2022/03/27 06:53:43;;;;;;;12.63;7.25;;;;;;;;;;6313448;22;20446;-82
2022/03/27 06:56:09;;;;;;;12.90;7.72;;;;;;;;;;6313665;22;20095;-81
2022/03/27 06:58:35;;;;;;;13.77;7.50;;;;;;;;;;6285763;22;20082;-82
2022/03/27 07:03:46;;;;;;;13.68;7.95;;;;;;;;;;6312808;22;20029;-82
2022/03/27 07:06:14;;;;;;;12.63;7.80;;;;;;;;;;6313795;22;20010;-81
2022/03/27 07:08:41;;;;;;;12.82;7.72;;;;;;;;;;6313882;22;19999;-81
2022/03/27 07:11:07;;;;;;;13.35;7.85;;;;;;;;;;6314503;22;20003;-82
2022/03/27 07:13:34;;;;;;;12.90;8.00;;;;;;;;;;6314377;22;20091;-81
2022/03/27 07:16:00;;;;;;;13.02;7.80;;;;;;;;;;6313697;22;19999;-82
2022/03/27 07:18:26;;;;;;;13.10;7.50;;;;;;;;;;6313438;22;20071;-82
2022/03/27 07:20:52;;;;;;;12.93;8.35;;;;;;;;;;6314145;22;20083;-82
2022/03/27 07:23:19;;;;;;;12.43;8.07;;;;;;;;;;6313844;22;20046;-82
2022/03/27 07:25:50;;;;;;;12.52;7.97;;;;;;;;;;6285825;22;20004;-81
2022/03/27 07:28:18;;;;;;;14.40;8.13;;;;;;;;;;6314518;22;20335;-82
2022/03/27 07:30:45;;;;;;;12.10;8.13;;;;;;;;;;6286626;22;20443;-82
2022/03/27 07:33:11;;;;;;;15.35;8.57;;;;;;;;;;6312922;22;20003;-82
2022/03/27 07:35:37;;;;;;;13.95;8.98;;;;;;;;;;6312914;22;20003;-82
2022/03/27 07:38:04;;;;;;;17.25;11.00;;;;;;;;;;6285574;22;20396;-81
2022/03/27 07:40:30;;;;;;;15.50;10.02;;;;;;;;;;6311478;22;20019;-82
2022/03/27 07:42:57;;;;;;;21.63;12.93;;;;;;;;;;6310779;22;19999;-81
2022/03/27 07:45:24;;;;;;;14.23;9.30;;;;;;;;;;6311046;22;20003;-82
2022/03/27 07:47:50;;;;;;;14.60;9.13;;;;;;;;;;6284796;22;20069;-81
2022/03/27 07:50:18;;;;;;;16.23;9.68;;;;;;;;;;6311408;22;20000;-81
2022/03/27 07:52:47;;;;;;;14.43;9.30;;;;;;;;;;6282941;22;20042;-82
2022/03/27 07:55:14;;;;;;;14.02;8.85;;;;;;;;;;6283279;22;19996;-82
2022/03/27 07:57:41;;;;;;;15.63;8.63;;;;;;;;;;6283726;22;20048;-82
2022/03/27 08:00:10;;;;;;;16.10;9.77;;;;;;;;;;6312511;22;20006;-82
2022/03/27 08:02:40;;;;;;;15.88;9.77;;;;;;;;;;6311624;22;20003;-82
2022/03/27 08:05:07;;;;;;;17.92;9.88;;;;;;;;;;6284639;22;20089;-82
2022/03/27 08:07:33;;;;;;;14.75;8.82;;;;;;;;;;6311081;22;19999;-83
2022/03/27 08:09:59;;;;;;;13.27;8.75;;;;;;;;;;6285529;22;19999;-83
2022/03/27 08:12:26;;;;;;;15.80;10.25;;;;;;;;;;6284552;22;20015;-83
2022/03/27 08:14:52;;;;;;;17.27;9.60;;;;;;;;;;6315080;22;19999;-82
2022/03/27 08:17:18;;;;;;;13.50;8.85;;;;;;;;;;6317383;22;20496;-82
2022/03/27 08:19:46;;;;;;;13.88;9.02;;;;;;;;;;6313518;22;20027;-82
2022/03/27 08:22:14;;;;;;;13.10;8.23;;;;;;;;;;6291206;22;20003;-83
2022/03/27 08:24:40;;;;;;;16.92;10.27;;;;;;;;;;6291013;22;20090;-83
2022/03/27 08:27:08;;;;;;;22.33;13.88;;;;;;;;;;6313347;22;20428;-83
2022/03/27 08:29:36;;;;;;;21.52;12.75;;;;;;;;;;6313128;22;19999;-83
2022/03/27 08:32:04;;;;;;;24.70;13.95;;;;;;;;;;6312908;22;19999;-83
2022/03/27 08:34:31;;;;;;;27.08;15.68;;;;;;;;;;6312987;22;19996;-82
2022/03/27 08:36:58;;;;;;;30.75;17.13;;;;;;;;;;6284423;22;20011;-83
2022/03/27 08:39:24;;;;;;;21.27;12.52;;;;;;;;;;6311811;22;19996;-83
2022/03/27 08:41:51;;;;;;;16.90;11.23;;;;;;;;;;6312925;22;20122;-83
2022/03/27 08:44:19;;;;;;;20.63;12.30;;;;;;;;;;6312591;22;20021;-81
2022/03/27 08:46:45;;;;;;;15.10;9.57;;;;;;;;;;6312326;22;20462;-81
2022/03/27 08:49:19;;;;;;;14.60;9.00;;;;;;;;;;6313944;22;20002;-82
2022/03/27 08:52:08;;;;;;;22.80;12.98;;;;;;;;;;6312980;22;20128;-82
2022/03/27 08:54:43;;;;;;;22.50;13.55;;;;;;;;;;6293543;22;20006;-82
2022/03/27 08:57:33;;;;;;;16.10;10.13;;;;;;;;;;6312541;22;19995;-82
2022/03/27 09:00:00;;;;;;;14.80;9.68;;;;;;;;;;6313407;22;19999;-82
2022/03/27 09:02:26;;;;;;;14.40;8.90;;;;;;;;;;6314874;22;20029;-82
2022/03/27 09:04:56;;;;;;;14.68;8.90;;;;;;;;;;6314341;22;20010;-83
2022/03/27 09:07:29;;;;;;;14.98;10.55;;;;;;;;;;6314685;22;20082;-83
2022/03/27 09:09:58;;;;;;;16.92;10.30;;;;;;;;;;6314695;22;20006;-81
2022/03/27 09:12:24;;;;;;;16.08;9.07;;;;;;;;;;6315076;22;20023;-82
2022/03/27 09:14:50;;;;;;;14.90;9.43;;;;;;;;;;6288832;22;20035;-82
2022/03/27 09:17:17;;;;;;;15.88;11.13;;;;;;;;;;6287677;22;20482;-82
2022/03/27 09:19:47;;;;;;;19.45;16.45;;;;;;;;;;6313343;22;19995;-82
2022/03/27 09:22:15;;;;;;;17.35;14.68;;;;;;;;;;6314213;22;19998;-81
2022/03/27 09:24:42;;;;;;;14.88;10.98;;;;;;;;;;6313564;22;20007;-82
2022/03/27 09:27:08;;;;;;;15.13;9.82;;;;;;;;;;6314369;22;20014;-82
2022/03/27 09:29:53;;;;;;;14.45;9.30;;;;;;;;;;6286197;22;20007;-81
2022/03/27 09:32:25;;;;;;;16.13;9.23;;;;;;;;;;6314442;22;20373;-82
2022/03/27 09:35:17;;;;;;;14.95;9.57;;;;;;;;;;6315066;22;20001;-82
2022/03/27 09:37:46;;;;;;;17.23;10.35;;;;;;;;;;6307512;22;20434;-82
2022/03/27 09:40:12;;;;;;;14.48;9.85;;;;;;;;;;6312727;22;20006;-83
2022/03/27 09:42:40;;;;;;;14.80;9.93;;;;;;;;;;6285948;22;20010;-83
2022/03/27 09:45:16;;;;;;;15.50;9.88;;;;;;;;;;6313874;22;20446;-82
2022/03/27 09:47:43;;;;;;;14.10;9.45;;;;;;;;;;6317215;22;20022;-82
2022/03/27 09:50:28;;;;;;;14.95;10.02;;;;;;;;;;6317915;22;19999;-82
2022/03/27 09:52:54;;;;;;;15.43;9.57;;;;;;;;;;6286106;22;20011;-82
2022/03/27 09:55:21;;;;;;;14.38;10.65;;;;;;;;;;6313849;22;19995;-83
2022/03/27 09:57:57;;;;;;;14.38;9.88;;;;;;;;;;6313310;22;20332;-82
2022/03/27 10:00:23;;;;;;;13.15;8.82;;;;;;;;;;6312225;22;20053;-82
2022/03/27 10:02:51;;;;;;;16.20;10.20;;;;;;;;;;6312918;22;20029;-82
2022/03/27 10:05:21;;;;;;;15.18;10.02;;;;;;;;;;6312443;22;19999;-82
2022/03/27 10:07:48;;;;;;;14.70;10.57;;;;;;;;;;6311630;22;20017;-82
2022/03/27 10:10:16;;;;;;;14.52;10.13;;;;;;;;;;6312585;22;20027;-83
2022/03/27 10:12:43;;;;;;;14.82;9.95;;;;;;;;;;6312425;22;20052;-82
2022/03/27 10:15:12;;;;;;;13.70;8.95;;;;;;;;;;6312377;22;19999;-82
2022/03/27 10:17:41;;;;;;;13.55;8.85;;;;;;;;;;6311472;22;19996;-82
2022/03/27 10:20:09;;;;;;;12.23;8.82;;;;;;;;;;6313086;22;19999;-83
2022/03/27 10:22:41;;;;;;;12.85;8.75;;;;;;;;;;6311852;22;20431;-82
2022/03/27 10:25:08;;;;;;;15.25;8.95;;;;;;;;;;6308385;22;20019;-82
2022/03/27 10:27:36;;;;;;;13.68;8.55;;;;;;;;;;6310940;22;20007;-82
2022/03/27 10:30:02;;;;;;;14.10;8.93;;;;;;;;;;6311962;22;20014;-83
2022/03/27 10:32:28;;;;;;;13.35;9.40;;;;;;;;;;6312334;22;19995;-83
2022/03/27 10:35:02;;;;;;;12.93;8.85;;;;;;;;;;6312995;22;20000;-83
2022/03/27 10:37:38;;;;;;;12.75;8.70;;;;;;;;;;6312774;22;20022;-83
2022/03/27 10:40:08;;;;;;;13.85;9.65;;;;;;;;;;6312121;22;20335;-83
2022/03/27 10:42:49;;;;;;;12.45;8.23;;;;;;;;;;6283958;22;20074;-82
2022/03/27 10:45:19;;;;;;;13.65;9.75;;;;;;;;;;6310722;22;20068;-81
2022/03/27 10:48:04;;;;;;;12.85;8.60;;;;;;;;;;6311014;22;20038;-82
2022/03/27 10:50:30;;;;;;;13.38;8.65;;;;;;;;;;6311409;22;20003;-82
2022/03/27 10:52:56;;;;;;;12.55;8.77;;;;;;;;;;6310988;22;19999;-82
2022/03/27 10:55:22;;;;;;;13.15;8.68;;;;;;;;;;6311498;22;20335;-82
2022/03/27 10:57:51;;;;;;;14.05;8.63;;;;;;;;;;6312035;22;19999;-83
2022/03/27 11:00:36;;;;;;;12.75;7.72;;;;;;;;;;6323270;22;19998;-84
2022/03/27 11:03:02;;;;;;;10.55;6.80;;;;;;;;;;6328868;22;20014;-82
2022/03/27 11:05:32;;;;;;;10.82;6.85;;;;;;;;;;6328659;22;20063;-82
2022/03/27 11:08:18;;;;;;;9.85;7.30;;;;;;;;;;6327974;22;19999;-83
2022/03/27 11:10:45;;;;;;;11.05;7.28;;;;;;;;;;6250250;22;20018;-83
2022/03/27 11:13:27;;;;;;;11.52;7.15;;;;;;;;;;6319491;22;20018;-83
2022/03/27 11:16:12;;;;;;;10.23;6.85;;;;;;;;;;6283740;22;20050;-83
2022/03/27 11:18:43;;;;;;;10.90;6.95;;;;;;;;;;6314104;22;19995;-83
2022/03/27 11:21:11;;;;;;;9.63;6.32;;;;;;;;;;6287256;22;20338;-82
2022/03/27 11:23:38;;;;;;;10.38;6.95;;;;;;;;;;6315081;22;19999;-82
2022/03/27 11:26:05;;;;;;;10.75;6.57;;;;;;;;;;6316047;22;20078;-83
2022/03/27 11:28:45;;;;;;;11.07;7.43;;;;;;;;;;6311915;22;20447;-82
2022/03/27 11:31:11;;;;;;;10.50;6.80;;;;;;;;;;6310787;22;20003;-81
2022/03/27 11:33:40;;;;;;;11.32;7.10;;;;;;;;;;6311860;22;19999;-82
2022/03/27 11:36:09;;;;;;;10.15;6.05;;;;;;;;;;6311314;22;20006;-81
2022/03/27 11:38:47;;;;;;;10.43;6.32;;;;;;;;;;6312765;22;19999;-79
2022/03/27 11:41:26;;;;;;;9.30;6.28;;;;;;;;;;6313754;22;20002;-79
2022/03/27 11:43:56;;;;;;;10.52;7.15;;;;;;;;;;6323780;22;20003;-81
2022/03/27 11:46:27;;;;;;;9.18;6.38;;;;;;;;;;6322509;22;20003;-82
2022/03/27 11:48:57;;;;;;;10.20;6.25;;;;;;;;;;6313066;22;20010;-82
2022/03/27 11:51:26;;;;;;;10.63;6.47;;;;;;;;;;6310631;22;20004;-82
2022/03/27 11:53:53;;;;;;;9.10;5.97;;;;;;;;;;6311057;22;20453;-82
2022/03/27 11:56:20;;;;;;;9.35;5.97;;;;;;;;;;6310982;22;20347;-82
2022/03/27 11:59:04;;;;;;;10.20;6.70;;;;;;;;;;6310528;22;20021;-83
2022/03/27 12:01:31;;;;;;;10.25;6.10;;;;;;;;;;6310422;22;20070;-82
2022/03/27 12:03:58;;;;;;;9.95;6.35;;;;;;;;;;6310427;22;20067;-81
2022/03/27 12:06:27;;;;;;;9.27;5.63;;;;;;;;;;6310750;22;20057;-82
2022/03/27 12:08:55;;;;;;;8.75;5.72;;;;;;;;;;6310738;22;20027;-82
2022/03/27 12:11:23;;;;;;;9.10;6.07;;;;;;;;;;6310356;22;19999;-82
2022/03/27 12:13:49;;;;;;;9.82;6.20;;;;;;;;;;6310525;22;20436;-82
2022/03/27 12:16:16;;;;;;;9.85;6.53;;;;;;;;;;6311310;22;19999;-82
2022/03/27 12:18:44;;;;;;;9.35;5.88;;;;;;;;;;6310699;22;20009;-82
2022/03/27 12:21:13;;;;;;;11.95;6.90;;;;;;;;;;6311405;22;19999;-83
2022/03/27 12:23:43;;;;;;;9.32;6.45;;;;;;;;;;6313117;22;20313;-81
2022/03/27 12:32:13;;;;;;;10.13;5.93;;;;;;;;;;6311438;22;20069;-81
2022/03/27 12:34:53;;;;;;;8.63;5.88;;;;;;;;;;6312170;22;20002;-82
2022/03/27 12:37:20;;;;;;;9.55;6.05;;;;;;;;;;6312718;22;20006;-83
2022/03/27 12:39:49;;;;;;;9.38;5.93;;;;;;;;;;6312270;22;20492;-82
2022/03/27 12:42:36;;;;;;;7.93;5.45;;;;;;;;;;6313118;22;19999;-82
2022/03/27 12:45:02;;;;;;;8.25;5.57;;;;;;;;;;6313656;22;20056;-82
2022/03/27 12:47:32;;;;;;;9.18;6.15;;;;;;;;;;6313762;22;19999;-82
2022/03/27 12:49:58;;;;;;;9.63;5.63;;;;;;;;;;6313061;22;20025;-80
2022/03/27 12:52:24;;;;;;;8.68;5.47;;;;;;;;;;6313879;22;20038;-80
2022/03/27 12:54:57;;;;;;;9.68;5.90;;;;;;;;;;6316059;22;19995;-83
2022/03/27 12:57:24;;;;;;;8.73;6.25;;;;;;;;;;6316584;22;19999;-83
2022/03/27 12:59:50;;;;;;;8.10;5.53;;;;;;;;;;6316428;22;19996;-82
2022/03/27 13:02:28;;;;;;;8.50;5.93;;;;;;;;;;6313596;22;20019;-82
2022/03/27 13:05:01;;;;;;;9.20;5.80;;;;;;;;;;6313343;22;20010;-81
2022/03/27 13:07:46;;;;;;;9.55;6.20;;;;;;;;;;6313660;22;20007;-82
2022/03/27 13:10:12;;;;;;;9.15;5.97;;;;;;;;;;6313179;22;20529;-81
2022/03/27 13:12:38;;;;;;;8.80;5.85;;;;;;;;;;6312652;22;20439;-83
2022/03/27 13:15:04;;;;;;;8.52;5.30;;;;;;;;;;6313592;22;20027;-82
2022/03/27 13:17:30;;;;;;;8.73;5.35;;;;;;;;;;6312145;22;19995;-82
2022/03/27 13:19:56;;;;;;;8.23;4.90;;;;;;;;;;6312721;22;19996;-82
2022/03/27 13:22:22;;;;;;;8.48;6.03;;;;;;;;;;6314073;22;20071;-83
2022/03/27 13:24:53;;;;;;;9.13;6.18;;;;;;;;;;6312037;22;20003;-82
2022/03/27 13:27:19;;;;;;;9.88;5.85;;;;;;;;;;6311475;22;20003;-82
2022/03/27 13:29:45;;;;;;;10.35;5.95;;;;;;;;;;6312223;22;20326;-82
2022/03/27 13:32:11;;;;;;;7.50;5.30;;;;;;;;;;6311784;22;20003;-81
2022/03/27 13:34:37;;;;;;;8.73;5.60;;;;;;;;;;6312404;22;20098;-81
2022/03/27 13:37:03;;;;;;;8.82;5.47;;;;;;;;;;6312830;22;20074;-80
2022/03/27 13:39:30;;;;;;;9.05;5.25;;;;;;;;;;6312382;22;20010;-82
2022/03/27 13:44:42;;;;;;;6.90;4.63;;;;;;;;;;6312518;22;20064;-82
2022/03/27 13:47:09;;;;;;;8.57;5.78;;;;;;;;;;6312346;22;20339;-83
2022/03/27 13:49:35;;;;;;;8.00;4.72;;;;;;;;;;6312495;22;19995;-82
2022/03/27 13:52:01;;;;;;;8.48;5.35;;;;;;;;;;6312289;22;20074;-82
2022/03/27 13:54:27;;;;;;;10.50;6.70;;;;;;;;;;6312659;22;19999;-81
2022/03/27 13:56:54;;;;;;;9.27;5.85;;;;;;;;;;6312536;22;19999;-82
2022/03/27 13:59:20;;;;;;;10.55;7.07;;;;;;;;;;6314061;22;20015;-82
2022/03/27 14:01:49;;;;;;;10.32;6.75;;;;;;;;;;6311852;22;20011;-82
2022/03/27 14:04:15;;;;;;;9.30;6.13;;;;;;;;;;6311451;22;20026;-83
2022/03/27 14:06:42;;;;;;;8.82;6.07;;;;;;;;;;6313556;22;19999;-83
2022/03/27 14:09:08;;;;;;;9.63;6.30;;;;;;;;;;6284965;22;20307;-83
2022/03/27 14:11:35;;;;;;;8.88;6.03;;;;;;;;;;6311435;22;20002;-83
2022/03/27 14:14:01;;;;;;;9.75;6.50;;;;;;;;;;6312048;22;19999;-82
2022/03/27 14:16:28;;;;;;;8.48;5.80;;;;;;;;;;6311869;22;19999;-82
2022/03/27 14:18:54;;;;;;;10.00;6.07;;;;;;;;;;6312841;22;20006;-82
2022/03/27 14:21:21;;;;;;;9.00;5.70;;;;;;;;;;6313812;22;19999;-82
2022/03/27 14:23:47;;;;;;;8.23;5.20;;;;;;;;;;6312608;22;20288;-83
2022/03/27 14:26:13;;;;;;;8.00;5.40;;;;;;;;;;6311690;22;20025;-81
2022/03/27 14:28:39;;;;;;;9.50;5.88;;;;;;;;;;6312196;22;20107;-82
2022/03/27 14:31:05;;;;;;;10.02;6.47;;;;;;;;;;6311837;22;20019;-82
2022/03/27 14:33:32;;;;;;;10.80;5.88;;;;;;;;;;6314802;22;20026;-81
2022/03/27 14:35:58;;;;;;;10.20;6.15;;;;;;;;;;6286625;22;20003;-83
2022/03/27 14:38:25;;;;;;;8.65;5.55;;;;;;;;;;6311413;22;20059;-83
2022/03/27 14:40:51;;;;;;;9.60;5.75;;;;;;;;;;6310642;22;19995;-80
2022/03/27 14:43:20;;;;;;;8.23;5.60;;;;;;;;;;6310852;22;20018;-82
2022/03/27 14:45:46;;;;;;;8.25;4.88;;;;;;;;;;6283796;22;20003;-82